createdAt,value
2022-09-23T00:01:21.690Z,101646.03
2022-09-23T00:03:49.305Z,101636.34
2022-09-23T00:06:22.943Z,101643.28
2022-09-23T00:08:51.652Z,101639.75
2022-09-23T00:11:25.906Z,101638.91
2022-09-23T00:13:58.747Z,101635.31
2022-09-23T00:16:34.051Z,101634.38
2022-09-23T00:19:03.163Z,101632.56
2022-09-23T00:21:30.474Z,101629.84
2022-09-23T00:23:57.506Z,101635.88
2022-09-23T00:26:25.156Z,101634.09
2022-09-23T00:28:52.596Z,101629.63
2022-09-23T00:31:24.729Z,101623.44
2022-09-23T00:33:57.891Z,101616.34
2022-09-23T00:36:25.697Z,101620.69
2022-09-23T00:38:54.300Z,101622.41
2022-09-23T00:41:21.782Z,101626.81
2022-09-23T00:44:00.910Z,101623.28
2022-09-23T00:46:37.731Z,101625.78
2022-09-23T00:49:25.050Z,101619.50
2022-09-23T00:51:58.986Z,101623.88
2022-09-23T00:54:27.788Z,101627.34
2022-09-23T00:56:56.442Z,101626.41
2022-09-23T00:59:24.502Z,101621.03
2022-09-23T01:01:54.887Z,101627.28
2022-09-23T01:04:27.291Z,101616.59
2022-09-23T01:06:54.331Z,101613.97
2022-09-23T01:09:22.772Z,101602.47
2022-09-23T01:12:18.646Z,101608.56
2022-09-23T01:15:11.463Z,101607.66
2022-09-23T01:17:52.074Z,101612.03
2022-09-23T01:21:17.271Z,101609.22
2022-09-23T01:24:37.849Z,101609.16
2022-09-23T01:27:17.914Z,101613.47
2022-09-23T01:30:16.724Z,101605.56
2022-09-23T01:33:04.683Z,101614.34
2022-09-23T01:36:07.160Z,101605.56
2022-09-23T01:38:50.018Z,101603.75
2022-09-23T01:41:35.715Z,101601.13
2022-09-23T01:44:23.061Z,101610.81
2022-09-23T01:47:02.512Z,101607.31
2022-09-23T01:49:42.652Z,101603.81
2022-09-23T01:52:38.835Z,101601.19
2022-09-23T01:55:24.563Z,101600.31
2022-09-23T01:58:14.280Z,101616.03
2022-09-23T02:01:04.506Z,101615.13
2022-09-23T02:04:04.204Z,101608.88
2022-09-23T02:06:42.706Z,101603.59
2022-09-23T02:09:15.753Z,101593.88
2022-09-23T02:11:48.646Z,101593.00
2022-09-23T02:14:42.789Z,101590.28
2022-09-23T02:17:15.794Z,101589.41
2022-09-23T02:19:58.614Z,101585.75
2022-09-23T02:22:57.029Z,101574.25
2022-09-23T02:25:49.060Z,101575.94
2022-09-23T02:28:21.633Z,101580.28
2022-09-23T02:30:59.207Z,101572.31
2022-09-23T02:33:45.793Z,101566.91
2022-09-23T02:36:49.637Z,101560.75
2022-09-23T02:39:19.693Z,101558.00
2022-09-23T02:42:02.319Z,101557.91
2022-09-23T02:44:29.652Z,101547.44
2022-09-23T02:46:57.854Z,101558.84
2022-09-23T02:49:33.844Z,101551.75
2022-09-23T02:52:04.740Z,101555.91
2022-09-23T02:54:33.648Z,101554.22
2022-09-23T02:57:03.506Z,101541.03
2022-09-23T02:59:32.295Z,101542.81
2022-09-23T03:02:52.657Z,101545.31
2022-09-23T03:05:30.174Z,101539.94
2022-09-23T03:08:38.828Z,101547.94
2022-09-23T03:11:10.563Z,101548.00
2022-09-23T03:14:18.788Z,101552.31
2022-09-23T03:16:53.015Z,101545.22
2022-09-23T03:19:48.425Z,101539.09
2022-09-23T03:22:39.916Z,101536.50
2022-09-23T03:25:15.654Z,101534.59
2022-09-23T03:27:44.271Z,101545.97
2022-09-23T03:30:13.130Z,101534.44
2022-09-23T03:32:44.768Z,101537.13
2022-09-23T03:35:13.502Z,101548.56
2022-09-23T03:37:50.834Z,101537.13
2022-09-23T03:40:40.189Z,101535.25
2022-09-23T03:43:07.767Z,101537.13
2022-09-23T03:45:36.387Z,101530.13
2022-09-23T03:48:04.451Z,101522.38
2022-09-23T03:50:31.566Z,101519.78
2022-09-23T03:52:59.347Z,101521.53
2022-09-23T03:55:26.424Z,101530.31
2022-09-23T03:57:53.590Z,101512.75
2022-09-23T04:00:20.674Z,101513.66
2022-09-23T04:02:48.282Z,101512.75
2022-09-23T04:05:15.453Z,101508.41
2022-09-23T04:07:42.633Z,101505.75
2022-09-23T04:10:10.823Z,101511.16
2022-09-23T04:12:38.484Z,101496.22
2022-09-23T04:15:06.657Z,101501.50
2022-09-23T04:17:33.795Z,101502.34
2022-09-23T04:20:00.924Z,101497.13
2022-09-23T04:22:27.962Z,101497.16
2022-09-23T04:24:55.056Z,101484.91
2022-09-23T04:27:22.109Z,101484.94
2022-09-23T04:29:49.100Z,101488.44
2022-09-23T04:32:16.078Z,101488.44
2022-09-23T04:34:43.447Z,101492.88
2022-09-23T04:37:10.637Z,101493.75
2022-09-23T04:39:37.728Z,101487.78
2022-09-23T04:42:04.872Z,101486.78
2022-09-23T04:44:31.926Z,101482.41
2022-09-23T04:46:59.025Z,101487.69
2022-09-23T04:49:26.526Z,101495.53
2022-09-23T04:51:54.333Z,101492.13
2022-09-23T04:54:21.386Z,101500.91
2022-09-23T04:56:48.345Z,101494.75
2022-09-23T04:59:15.434Z,101495.69
2022-09-23T05:01:43.095Z,101493.94
2022-09-23T05:04:13.904Z,101484.28
2022-09-23T05:06:45.135Z,101497.47
2022-09-23T05:09:18.227Z,101502.72
2022-09-23T05:11:45.977Z,101498.31
2022-09-23T05:14:13.268Z,101501.88
2022-09-23T05:16:40.899Z,101509.75
2022-09-23T05:19:08.247Z,101504.50
2022-09-23T05:21:37.111Z,101508.97
2022-09-23T05:24:04.453Z,101501.88
2022-09-23T05:26:32.558Z,101516.03
2022-09-23T05:29:00.323Z,101509.00
2022-09-23T05:31:30.256Z,101513.38
2022-09-23T05:34:01.402Z,101511.63
2022-09-23T05:36:35.547Z,101506.38
2022-09-23T05:39:05.977Z,101515.16
2022-09-23T05:41:33.992Z,101516.06
2022-09-23T05:44:01.587Z,101512.47
2022-09-23T05:46:31.224Z,101516.03
2022-09-23T05:49:03.702Z,101523.88
2022-09-23T05:51:32.875Z,101516.97
2022-09-23T05:54:04.271Z,101519.72
2022-09-23T05:56:33.388Z,101515.22
2022-09-23T05:59:02.427Z,101516.16
2022-09-23T06:01:35.410Z,101524.88
2022-09-23T06:04:06.708Z,101522.25
2022-09-23T06:06:40.150Z,101522.28
2022-09-23T06:09:11.257Z,101524.03
2022-09-23T06:11:38.322Z,101516.19
2022-09-23T06:14:06.003Z,101514.44
2022-09-23T06:16:35.517Z,101508.34
2022-09-23T06:19:06.454Z,101510.97
2022-09-23T06:21:38.006Z,101501.28
2022-09-23T06:24:06.611Z,101505.75
2022-09-23T06:26:35.565Z,101502.28
2022-09-23T06:29:04.430Z,101503.13
2022-09-23T06:31:32.110Z,101504.16
2022-09-23T06:34:09.255Z,101504.22
2022-09-23T06:36:43.973Z,101509.50
2022-09-23T06:39:13.670Z,101505.22
2022-09-23T06:41:40.866Z,101506.09
2022-09-23T06:44:08.520Z,101505.31
2022-09-23T06:46:40.094Z,101503.66
2022-09-23T06:49:07.271Z,101500.31
2022-09-23T06:51:34.658Z,101504.81
2022-09-23T06:54:01.847Z,101500.53
2022-09-23T06:56:31.509Z,101501.47
2022-09-23T06:59:02.004Z,101514.47
2022-09-23T07:01:29.118Z,101503.94
2022-09-23T07:03:56.364Z,101494.66
2022-09-23T07:06:23.365Z,101485.97
2022-09-23T07:08:51.608Z,101483.38
2022-09-23T07:11:22.429Z,101489.59
2022-09-23T07:13:50.948Z,101494.88
2022-09-23T07:16:18.431Z,101490.41
2022-09-23T07:18:45.871Z,101493.03
2022-09-23T07:21:16.682Z,101490.34
2022-09-23T07:23:46.456Z,101489.38
2022-09-23T07:26:15.651Z,101500.88
2022-09-23T07:28:43.379Z,101489.28
2022-09-23T07:31:25.806Z,101498.13
2022-09-23T07:33:59.075Z,101492.75
2022-09-23T07:36:28.277Z,101496.28
2022-09-23T07:39:00.602Z,101491.78
2022-09-23T07:41:29.209Z,101487.28
2022-09-23T07:44:00.127Z,101492.53
2022-09-23T07:46:31.086Z,101488.97
2022-09-23T07:48:58.620Z,101487.16
2022-09-23T07:51:35.383Z,101492.44
2022-09-23T07:54:07.788Z,101493.28
2022-09-23T07:56:36.347Z,101491.53
2022-09-23T07:59:04.594Z,101491.50
2022-09-23T08:01:41.246Z,101488.78
2022-09-23T08:04:21.576Z,101491.41
2022-09-23T08:06:55.473Z,101492.25
2022-09-23T08:09:26.757Z,101492.22
2022-09-23T08:11:54.839Z,101495.75
2022-09-23T08:14:25.190Z,101495.75
2022-09-23T08:16:52.538Z,101500.19
2022-09-23T08:19:20.168Z,101507.28
2022-09-23T08:21:47.872Z,101497.53
2022-09-23T08:24:21.268Z,101488.63
2022-09-23T08:26:49.115Z,101499.28
2022-09-23T08:29:18.307Z,101490.38
2022-09-23T08:31:45.420Z,101499.28
2022-09-23T08:34:13.279Z,101496.63
2022-09-23T08:36:40.264Z,101492.19
2022-09-23T08:39:07.608Z,101492.19
2022-09-23T08:41:57.514Z,101488.63
2022-09-23T08:44:40.420Z,101494.84
2022-09-23T08:47:20.150Z,101497.50
2022-09-23T08:50:14.036Z,101488.63
2022-09-23T08:52:55.236Z,101485.97
2022-09-23T08:55:33.403Z,101493.97
2022-09-23T08:58:30.918Z,101483.31
2022-09-23T09:01:19.378Z,101489.53
2022-09-23T09:03:58.219Z,101493.94
2022-09-23T09:07:34.848Z,101493.94
2022-09-23T09:10:03.875Z,101493.03
2022-09-23T09:12:47.283Z,101499.28
2022-09-23T09:15:24.693Z,101497.50
2022-09-23T09:18:15.492Z,101495.72
2022-09-23T09:20:59.393Z,101492.16
2022-09-23T09:23:57.518Z,101493.06
2022-09-23T09:26:25.859Z,101497.50
2022-09-23T09:29:11.459Z,101493.94
2022-09-23T09:31:50.428Z,101490.38
2022-09-23T09:34:54.598Z,101488.59
2022-09-23T09:37:53.719Z,101485.06
2022-09-23T09:40:21.081Z,101488.59
2022-09-23T09:42:50.118Z,101486.84
2022-09-23T09:45:46.684Z,101478.81
2022-09-23T09:48:27.985Z,101476.13
2022-09-23T09:50:55.987Z,101471.63
2022-09-23T09:53:35.713Z,101474.28
2022-09-23T09:56:11.303Z,101468.94
2022-09-23T09:58:55.897Z,101470.66
2022-09-23T10:01:33.369Z,101465.28
2022-09-23T10:04:35.587Z,101459.94
2022-09-23T10:07:31.779Z,101458.13
2022-09-23T10:10:32.741Z,101457.25
2022-09-23T10:13:16.138Z,101457.25
2022-09-23T10:15:45.416Z,101455.47
2022-09-23T10:18:55.871Z,101457.22
2022-09-23T10:21:28.082Z,101449.22
2022-09-23T10:23:58.680Z,101462.50
2022-09-23T10:26:34.589Z,101465.19
2022-09-23T10:29:19.337Z,101458.03
2022-09-23T10:31:46.342Z,101454.50
2022-09-23T10:34:29.522Z,101453.59
2022-09-23T10:37:14.935Z,101455.34
2022-09-23T10:40:00.478Z,101456.25
2022-09-23T10:43:27.831Z,101463.34
2022-09-23T10:46:18.792Z,101460.66
2022-09-23T10:49:09.959Z,101453.53
2022-09-23T10:52:27.731Z,101459.72
2022-09-23T10:55:15.660Z,101455.28
2022-09-23T10:57:45.454Z,101453.53
2022-09-23T11:00:37.882Z,101457.06
2022-09-23T11:03:47.243Z,101457.97
2022-09-23T11:06:48.861Z,101456.16
2022-09-23T11:09:42.521Z,101455.25
2022-09-23T11:12:24.217Z,101459.72
2022-09-23T11:15:11.795Z,101452.59
2022-09-23T11:18:13.099Z,101454.34
2022-09-23T11:21:07.883Z,101453.44
2022-09-23T11:24:15.868Z,101450.72
2022-09-23T11:27:08.537Z,101448.06
2022-09-23T11:30:07.817Z,101456.03
2022-09-23T11:32:39.633Z,101448.81
2022-09-23T11:35:31.003Z,101451.50
2022-09-23T11:38:12.068Z,101443.53
2022-09-23T11:40:45.639Z,101440.94
2022-09-23T11:43:31.355Z,101440.03
2022-09-23T11:46:23.749Z,101436.50
2022-09-23T11:49:27.479Z,101436.50
2022-09-23T11:52:10.832Z,101432.91
2022-09-23T11:55:21.425Z,101436.50
2022-09-23T11:57:57.531Z,101436.56
2022-09-23T12:00:34.432Z,101427.72
2022-09-23T12:03:18.607Z,101425.03
2022-09-23T12:05:51.401Z,101428.63
2022-09-23T12:08:29.072Z,101421.50
2022-09-23T12:11:25.695Z,101417.03
2022-09-23T12:14:12.024Z,101420.59
2022-09-23T12:16:56.095Z,101423.25
2022-09-23T12:19:43.012Z,101427.72
2022-09-23T12:22:24.807Z,101425.09
2022-09-23T12:24:55.611Z,101419.75
2022-09-23T12:27:36.998Z,101422.44
2022-09-23T12:30:17.863Z,101424.22
2022-09-23T12:32:45.275Z,101419.81
2022-09-23T12:35:44.789Z,101414.47
2022-09-23T12:38:29.820Z,101415.34
2022-09-23T12:40:57.155Z,101412.63
2022-09-23T12:43:33.106Z,101400.16
2022-09-23T12:46:42.920Z,101408.22
2022-09-23T12:49:28.810Z,101403.75
2022-09-23T12:52:16.995Z,101417.06
2022-09-23T12:54:50.126Z,101413.53
2022-09-23T12:57:35.546Z,101414.38
2022-09-23T13:00:12.819Z,101409.94
2022-09-23T13:03:11.901Z,101406.38
2022-09-23T13:06:16.614Z,101403.69
2022-09-23T13:08:45.694Z,101401.91
2022-09-23T13:11:32.280Z,101393.94
2022-09-23T13:14:05.020Z,101391.31
2022-09-23T13:16:43.672Z,101389.53
2022-09-23T13:19:25.885Z,101387.72
2022-09-23T13:22:09.262Z,101376.16
2022-09-23T13:24:43.010Z,101374.44
2022-09-23T13:27:30.565Z,101367.25
2022-09-23T13:30:25.734Z,101369.94
2022-09-23T13:33:14.285Z,101365.44
2022-09-23T13:35:51.166Z,101370.84
2022-09-23T13:38:29.675Z,101361.03
2022-09-23T13:41:12.319Z,101369.00
2022-09-23T13:43:58.773Z,101360.06
2022-09-23T13:46:40.093Z,101344.81
2022-09-23T13:49:24.629Z,101335.03
2022-09-23T13:51:56.589Z,101337.69
2022-09-23T13:54:50.083Z,101331.63
2022-09-23T13:57:34.970Z,101329.09
2022-09-23T14:00:21.762Z,101321.94
2022-09-23T14:02:48.803Z,101328.19
2022-09-23T14:05:33.388Z,101319.34
2022-09-23T14:08:01.299Z,101329.13
2022-09-23T14:10:28.502Z,101328.22
2022-09-23T14:12:56.849Z,101329.06
2022-09-23T14:15:24.071Z,101321.16
2022-09-23T14:18:03.222Z,101321.19
2022-09-23T14:20:30.267Z,101323.06
2022-09-23T14:23:27.087Z,101325.69
2022-09-23T14:25:55.773Z,101320.41
2022-09-23T14:28:26.268Z,101311.53
2022-09-23T14:30:57.719Z,101315.16
2022-09-23T14:33:31.473Z,101320.56
2022-09-23T14:36:33.223Z,101318.81
2022-09-23T14:39:12.320Z,101315.28
2022-09-23T14:41:45.657Z,101313.56
2022-09-23T14:44:23.700Z,101306.53
2022-09-23T14:46:59.351Z,101306.63
2022-09-23T14:49:27.437Z,101298.66
2022-09-23T14:51:58.624Z,101304.00
2022-09-23T14:54:28.664Z,101292.53
2022-09-23T14:56:55.752Z,101294.38
2022-09-23T14:59:36.957Z,101291.72
2022-09-23T15:02:44.504Z,101297.06
2022-09-23T15:05:22.200Z,101287.34
2022-09-23T15:07:55.651Z,101280.28
2022-09-23T15:10:37.616Z,101282.09
2022-09-23T15:13:30.199Z,101282.09
2022-09-23T15:16:00.173Z,101275.97
2022-09-23T15:18:33.456Z,101279.56
2022-09-23T15:21:11.655Z,101284.06
2022-09-23T15:23:41.687Z,101281.41
2022-09-23T15:26:17.028Z,101283.28
2022-09-23T15:28:45.473Z,101277.03
2022-09-23T15:31:15.075Z,101278.84
2022-09-23T15:33:44.756Z,101302.81
2022-09-23T15:36:22.366Z,101303.84
2022-09-23T15:38:50.053Z,101296.50
2022-09-23T15:41:20.038Z,101295.53
2022-09-23T15:43:47.297Z,101291.03
2022-09-23T15:46:22.436Z,101291.00
2022-09-23T15:49:08.573Z,101297.19
2022-09-23T15:51:37.393Z,101295.41
2022-09-23T15:54:09.525Z,101289.16
2022-09-23T15:56:36.557Z,101288.28
2022-09-23T15:59:03.766Z,101286.47
2022-09-23T16:01:36.551Z,101278.50
2022-09-23T16:04:05.493Z,101283.84
2022-09-23T16:06:35.285Z,101260.81
2022-09-23T16:09:02.721Z,101273.66
2022-09-23T16:11:34.199Z,101262.28
2022-09-23T16:14:01.378Z,101261.50
2022-09-23T16:16:28.935Z,101260.72
2022-09-23T16:18:56.069Z,101261.59
2022-09-23T16:21:30.196Z,101264.25
2022-09-23T16:24:00.266Z,101267.03
2022-09-23T16:26:40.777Z,101264.41
2022-09-23T16:29:09.888Z,101270.63
2022-09-23T16:31:38.138Z,101262.72
2022-09-23T16:34:05.600Z,101276.03
2022-09-23T16:36:43.046Z,101265.44
2022-09-23T16:39:13.355Z,101266.34
2022-09-23T16:41:43.475Z,101264.63
2022-09-23T16:44:12.461Z,101269.13
2022-09-23T16:46:42.869Z,101260.31
2022-09-23T16:49:13.719Z,101269.25
2022-09-23T16:51:41.340Z,101260.44
2022-09-23T16:54:11.778Z,101273.78
2022-09-23T16:56:44.324Z,101266.72
2022-09-23T16:59:16.265Z,101268.56
2022-09-23T17:02:02.550Z,101271.22
2022-09-23T17:04:29.662Z,101275.72
2022-09-23T17:06:56.867Z,101276.59
2022-09-23T17:09:27.585Z,101276.66
2022-09-23T17:12:09.065Z,101279.34
2022-09-23T17:14:36.307Z,101286.47
2022-09-23T17:17:03.388Z,101282.06
2022-09-23T17:19:30.460Z,101289.19
2022-09-23T17:21:57.476Z,101294.53
2022-09-23T17:24:24.473Z,101291.81
2022-09-23T17:26:53.273Z,101287.41
2022-09-23T17:29:20.691Z,101297.19
2022-09-23T17:31:47.884Z,101294.53
2022-09-23T17:34:14.971Z,101299.00
2022-09-23T17:36:41.948Z,101301.66
2022-09-23T17:39:09.128Z,101299.00
2022-09-23T17:41:37.420Z,101298.13
2022-09-23T17:44:04.773Z,101298.16
2022-09-23T17:46:32.187Z,101296.38
2022-09-23T17:48:59.331Z,101292.84
2022-09-23T17:51:27.073Z,101291.09
2022-09-23T17:53:55.212Z,101291.13
2022-09-23T17:56:27.032Z,101285.84
2022-09-23T17:58:54.515Z,101292.94
2022-09-23T18:01:24.903Z,101277.00
2022-09-23T18:04:00.937Z,101285.88
2022-09-23T18:06:35.480Z,101289.41
2022-09-23T18:09:05.671Z,101291.19
2022-09-23T18:11:39.143Z,101289.44
2022-09-23T18:14:21.767Z,101281.47
2022-09-23T18:16:52.329Z,101285.91
2022-09-23T18:19:22.427Z,101294.78
2022-09-23T18:21:53.622Z,101285.94
2022-09-23T18:24:32.283Z,101286.84
2022-09-23T18:27:00.626Z,101285.06
2022-09-23T18:29:28.124Z,101289.47
2022-09-23T18:31:55.300Z,101281.50
2022-09-23T18:34:22.426Z,101285.06
2022-09-23T18:36:49.639Z,101293.91
2022-09-23T18:39:17.246Z,101293.03
2022-09-23T18:41:44.221Z,101285.06
2022-09-23T18:44:11.491Z,101287.69
2022-09-23T18:46:38.564Z,101285.94
2022-09-23T18:49:24.534Z,101288.63
2022-09-23T18:51:55.647Z,101293.03
2022-09-23T18:54:25.057Z,101286.81
2022-09-23T18:56:52.853Z,101283.28
2022-09-23T18:59:24.727Z,101293.91
2022-09-23T19:01:55.497Z,101284.19
2022-09-23T19:04:25.099Z,101291.25
2022-09-23T19:06:54.000Z,101289.50
2022-09-23T19:09:21.027Z,101288.63
2022-09-23T19:11:52.332Z,101287.75
2022-09-23T19:14:20.105Z,101287.75
2022-09-23T19:16:49.188Z,101287.75
2022-09-23T19:19:17.040Z,101285.97
2022-09-23T19:21:44.082Z,101285.97
2022-09-23T19:24:15.774Z,101289.50
2022-09-23T19:26:44.092Z,101284.19
2022-09-23T19:29:19.452Z,101285.06
2022-09-23T19:31:46.607Z,101292.16
2022-09-23T19:34:26.031Z,101280.66
2022-09-23T19:36:56.876Z,101284.19
2022-09-23T19:39:27.495Z,101278.91
2022-09-23T19:41:58.770Z,101286.84
2022-09-23T19:44:28.631Z,101286.84
2022-09-23T19:46:57.012Z,101292.16
2022-09-23T19:49:25.449Z,101285.09
2022-09-23T19:51:55.430Z,101286.81
2022-09-23T19:54:26.086Z,101286.81
2022-09-23T19:56:53.271Z,101283.28
2022-09-23T19:59:20.238Z,101276.22
2022-09-23T20:01:48.695Z,101277.97
2022-09-23T20:04:16.892Z,101278.88
2022-09-23T20:06:45.880Z,101270.03
2022-09-23T20:09:13.075Z,101273.56
2022-09-23T20:11:44.155Z,101272.69
2022-09-23T20:14:11.949Z,101270.91
2022-09-23T20:16:39.115Z,101274.44
2022-09-23T20:19:06.662Z,101270.91
2022-09-23T20:21:34.358Z,101270.91
2022-09-23T20:24:05.290Z,101260.31
2022-09-23T20:26:50.877Z,101267.38
2022-09-23T20:29:17.936Z,101269.13
2022-09-23T20:31:45.113Z,101268.25
2022-09-23T20:34:12.642Z,101260.25
2022-09-23T20:36:41.751Z,101269.09
2022-09-23T20:39:10.133Z,101261.13
2022-09-23T20:41:39.178Z,101265.53
2022-09-23T20:44:12.409Z,101259.34
2022-09-23T20:46:47.902Z,101258.44
2022-09-23T20:49:17.739Z,101268.16
2022-09-23T20:51:45.265Z,101260.22
2022-09-23T20:54:12.423Z,101254.03
2022-09-23T20:56:39.755Z,101255.78
2022-09-23T20:59:07.003Z,101259.34
2022-09-23T21:01:36.541Z,101264.63
2022-09-23T21:04:05.739Z,101252.25
2022-09-23T21:06:36.660Z,101256.69
2022-09-23T21:09:06.027Z,101250.50
2022-09-23T21:11:33.948Z,101254.91
2022-09-23T21:14:01.524Z,101249.59
2022-09-23T21:16:29.051Z,101249.59
2022-09-23T21:18:56.517Z,101262.84
2022-09-23T21:21:24.122Z,101261.09
2022-09-23T21:23:52.080Z,101259.31
2022-09-23T21:26:24.701Z,101253.97
2022-09-23T21:28:57.849Z,101265.47
2022-09-23T21:31:36.281Z,101261.97
2022-09-23T21:34:13.146Z,101257.50
2022-09-23T21:36:43.329Z,101260.16
2022-09-23T21:39:11.847Z,101257.50
2022-09-23T21:41:40.082Z,101254.84
2022-09-23T21:44:08.016Z,101251.31
2022-09-23T21:46:35.843Z,101259.25
2022-09-23T21:49:04.095Z,101246.00
2022-09-23T21:51:38.551Z,101251.31
2022-09-23T21:54:07.368Z,101252.19
2022-09-23T21:56:36.457Z,101252.19
2022-09-23T21:59:04.252Z,101254.81
2022-09-23T22:01:44.998Z,101252.19
2022-09-23T22:04:17.450Z,101255.69
2022-09-23T22:06:46.146Z,101248.63
2022-09-23T22:09:20.136Z,101245.97
2022-09-23T22:12:07.915Z,101241.50
2022-09-23T22:14:35.018Z,101243.31
2022-09-23T22:17:05.904Z,101237.97
2022-09-23T22:19:42.665Z,101237.09
2022-09-23T22:22:16.390Z,101235.34
2022-09-23T22:24:46.068Z,101233.56
2022-09-23T22:27:16.061Z,101240.63
2022-09-23T22:30:01.686Z,101242.38
2022-09-23T22:32:40.763Z,101239.75
2022-09-23T22:35:17.540Z,101233.53
2022-09-23T22:37:44.989Z,101245.91
2022-09-23T22:40:14.828Z,101230.00
2022-09-23T22:42:43.288Z,101231.78
2022-09-23T22:45:11.905Z,101231.78
2022-09-23T22:47:41.311Z,101228.25
2022-09-23T22:50:09.674Z,101236.19
2022-09-23T22:52:37.876Z,101226.47
2022-09-23T22:55:08.107Z,101230.00
2022-09-23T22:57:35.948Z,101223.81
2022-09-23T23:00:05.811Z,101220.28
2022-09-23T23:02:33.108Z,101226.47
2022-09-23T23:05:00.479Z,101222.03
2022-09-23T23:07:27.561Z,101212.31
2022-09-23T23:09:54.579Z,101214.09
2022-09-23T23:12:21.812Z,101205.25
2022-09-23T23:14:49.621Z,101207.03
2022-09-23T23:17:17.375Z,101202.59
2022-09-23T23:19:44.562Z,101204.38
2022-09-23T23:22:11.577Z,101195.56
2022-09-23T23:24:38.629Z,101195.53
2022-09-23T23:27:05.729Z,101193.78
2022-09-23T23:29:32.696Z,101193.78
2022-09-23T23:31:59.759Z,101192.91
2022-09-23T23:34:27.268Z,101192.00
2022-09-23T23:36:55.273Z,101193.75
2022-09-23T23:39:24.457Z,101182.31
2022-09-23T23:41:56.466Z,101178.78
2022-09-23T23:44:27.307Z,101177.00
2022-09-23T23:46:55.179Z,101173.44
2022-09-23T23:49:22.797Z,101177.88
2022-09-23T23:51:50.669Z,101177.88
2022-09-23T23:54:17.702Z,101184.06
2022-09-23T23:56:44.817Z,101176.13
2022-09-23T23:59:12.129Z,101174.31
